.
WxDataArchive / Data Records for 2006-02-02
2006-02-01 February 2006 2006-02-03

Data Records for Thursday, 02 February 2006

Time	Temp	Chill	HIndex	Humid	Dewpt	 Wind 	HiWind	WindDir	Rain 	Barom 
-----	----	-----	------	-----	-----	------	------	-------	-----	----- 
00:00	37.6	37.6	37.6	85	33.5	0	0	---	0.00	29.734 
00:05	37.6	37.6	37.6	86	33.8	0	1	270	0.00	29.734 
00:10	37.8	37.8	37.8	86	34.0	0	1	270	0.00	29.734 
00:15	37.8	37.8	37.8	86	34.0	0	1	270	0.00	29.739 
00:20	37.9	37.9	37.9	86	34.1	0	2	270	0.00	29.739 
00:25	38.2	38.2	38.2	86	34.4	1	3	248	0.00	29.739 
00:30	38.5	38.5	38.5	85	34.4	1	3	248	0.00	29.742 
00:35	38.6	38.6	38.6	84	34.2	1	2	248	0.00	29.742 
00:40	38.8	38.8	38.8	84	34.4	1	2	248	0.00	29.742 
00:45	38.9	38.9	38.9	84	34.5	1	4	248	0.00	29.741 
00:50	38.9	38.9	38.9	84	34.5	1	4	248	0.00	29.741 
00:55	38.9	38.9	38.9	84	34.5	2	5	248	0.00	29.741 
01:00	38.9	38.9	38.9	84	34.5	2	6	248	0.00	29.739 
01:05	38.9	38.9	38.9	84	34.5	1	4	248	0.00	29.739 
01:10	38.8	38.8	38.8	84	34.4	1	2	248	0.00	29.739 
01:15	38.8	38.8	38.8	84	34.4	0	2	248	0.00	29.735 
01:20	38.6	38.6	38.6	84	34.2	1	3	225	0.00	29.735 
01:25	38.5	38.5	38.5	84	34.1	1	4	248	0.00	29.735 
01:30	38.5	38.5	38.5	84	34.1	1	2	248	0.00	29.736 
01:35	38.3	38.3	38.3	84	33.9	1	3	248	0.00	29.736 
01:40	38.3	38.3	38.3	84	33.9	1	2	248	0.00	29.736 
01:45	38.3	38.3	38.3	84	33.9	1	3	248	0.00	29.739 
01:50	38.2	38.2	38.2	84	33.8	0	2	248	0.00	29.739 
01:55	38.0	38.0	38.0	84	33.6	1	2	248	0.00	29.739 
02:00	38.0	38.0	38.0	84	33.6	1	3	248	0.00	29.744 
02:05	38.0	38.0	38.0	85	33.9	2	5	248	0.00	29.744 
02:10	38.2	38.2	38.2	84	33.8	1	3	248	0.00	29.744 
02:15	38.2	38.2	38.2	84	33.8	1	4	248	0.00	29.740 
02:20	38.2	38.2	38.2	84	33.8	1	3	248	0.00	29.740 
02:25	38.2	38.2	38.2	84	33.8	1	3	248	0.00	29.740 
02:30	38.2	38.2	38.2	84	33.8	1	5	248	0.00	29.740 
02:35	38.2	38.2	38.2	84	33.8	0	2	248	0.00	29.740 
02:40	37.9	37.9	37.9	84	33.5	0	0	---	0.00	29.740 
02:45	37.8	37.8	37.8	84	33.4	0	2	248	0.00	29.738 
02:50	37.6	37.6	37.6	85	33.5	0	2	248	0.00	29.738 
02:55	37.6	37.6	37.6	85	33.5	0	1	248	0.00	29.738 
03:00	37.6	37.6	37.6	85	33.5	0	1	248	0.00	29.737 
03:05	37.6	37.6	37.6	86	33.8	0	0	---	0.00	29.737 
03:10	37.6	37.6	37.6	86	33.8	0	1	248	0.00	29.737 
03:15	37.6	37.6	37.6	86	33.8	0	1	248	0.00	29.738 
03:20	37.6	37.6	37.6	85	33.5	0	0	---	0.00	29.738 
03:25	37.8	37.8	37.8	85	33.7	0	0	---	0.00	29.738 
03:30	37.8	37.8	37.8	85	33.7	0	0	---	0.00	29.736 
03:35	37.8	37.8	37.8	85	33.7	0	0	---	0.00	29.736 
03:40	37.8	37.8	37.8	86	34.0	0	2	248	0.00	29.736 
03:45	37.8	37.8	37.8	85	33.7	0	1	248	0.00	29.743 
03:50	37.8	37.8	37.8	85	33.7	0	1	248	0.00	29.743 
03:55	37.8	37.8	37.8	85	33.7	0	2	248	0.00	29.743 
04:00	37.8	37.8	37.8	84	33.4	0	2	248	0.00	29.755 
04:05	37.9	37.9	37.9	84	33.5	0	1	248	0.00	29.755 
04:10	37.9	37.9	37.9	83	33.2	0	2	248	0.00	29.755 
04:15	37.9	37.9	37.9	83	33.2	0	2	248	0.00	29.754 
04:20	38.0	38.0	38.0	82	33.0	1	2	248	0.00	29.754 
04:25	38.0	38.0	38.0	82	33.0	1	2	248	0.00	29.754 
04:30	38.0	38.0	38.0	82	33.0	1	3	248	0.00	29.753 
04:35	38.0	38.0	38.0	81	32.7	0	2	248	0.00	29.753 
04:40	37.9	37.9	37.9	81	32.6	1	2	248	0.00	29.753 
04:45	37.9	37.9	37.9	80	32.3	1	2	248	0.00	29.751 
04:50	37.9	37.9	37.9	80	32.3	0	2	248	0.00	29.751 
04:55	37.9	37.9	37.9	80	32.3	0	2	248	0.00	29.751 
05:00	37.9	37.9	37.9	81	32.6	0	2	248	0.00	29.747 
05:05	37.8	37.8	37.8	80	32.2	0	2	248	0.00	29.747 
05:10	37.8	37.8	37.8	81	32.5	0	1	248	0.00	29.747 
05:15	37.8	37.8	37.8	81	32.5	1	2	248	0.00	29.753 
05:20	37.6	37.6	37.6	81	32.3	0	3	248	0.00	29.753 
05:25	37.6	37.6	37.6	81	32.3	0	1	248	0.00	29.753 
05:30	37.5	37.5	37.5	80	31.9	0	2	248	0.00	29.747 
05:35	37.3	37.3	37.3	80	31.7	0	1	248	0.00	29.747 
05:40	37.2	37.2	37.2	81	31.9	0	1	248	0.00	29.747 
05:45	37.0	37.0	37.0	81	31.7	0	2	248	0.00	29.757 
05:50	36.8	36.8	36.8	81	31.5	0	0	---	0.00	29.757 
05:55	36.6	36.6	36.6	81	31.3	0	0	---	0.00	29.757 
06:00	36.5	36.5	36.5	81	31.2	0	0	---	0.00	29.756 
06:05	36.2	36.2	36.2	82	31.2	0	0	---	0.00	29.756 
06:10	36.0	36.0	36.0	83	31.3	0	0	---	0.00	29.756 
06:15	35.9	35.9	35.9	83	31.2	0	1	248	0.00	29.769 
06:20	35.9	35.9	35.9	83	31.2	0	1	248	0.00	29.769 
06:25	35.9	35.9	35.9	84	31.5	0	0	---	0.00	29.769 
06:30	35.9	35.9	35.9	84	31.5	0	0	---	0.00	29.773 
06:35	35.9	35.9	35.9	84	31.5	0	0	---	0.00	29.773 
06:40	35.9	35.9	35.9	84	31.5	0	0	---	0.00	29.773 
06:45	35.9	35.9	35.9	84	31.5	0	1	248	0.00	29.770 
06:50	35.9	35.9	35.9	84	31.5	0	0	---	0.00	29.770 
06:55	35.9	35.9	35.9	84	31.5	0	1	248	0.00	29.770 
07:00	36.0	36.0	36.0	83	31.3	0	3	248	0.00	29.776 
07:05	36.2	36.2	36.2	83	31.5	0	0	---	0.00	29.776 
07:10	36.2	36.2	36.2	83	31.5	0	1	248	0.00	29.776 
07:15	36.2	36.2	36.2	83	31.5	0	1	248	0.00	29.780 
07:20	36.3	36.3	36.3	81	31.0	0	1	248	0.00	29.780 
07:25	36.3	36.3	36.3	82	31.3	0	1	248	0.00	29.780 
07:30	36.5	36.5	36.5	82	31.5	0	1	248	0.00	29.772 
07:35	36.5	36.5	36.5	81	31.2	0	1	248	0.00	29.772 
07:40	36.5	36.5	36.5	81	31.2	0	2	248	0.00	29.772 
07:45	36.5	36.5	36.5	81	31.2	0	1	248	0.00	29.769 
07:50	36.5	36.5	36.5	81	31.2	0	1	248	0.00	29.769 
07:55	36.5	36.5	36.5	80	30.9	0	1	248	0.00	29.769 
08:00	36.5	36.5	36.5	81	31.2	0	0	---	0.00	29.762 
08:05	36.5	36.5	36.5	81	31.2	0	1	248	0.00	29.762 
08:10	36.5	36.5	36.5	81	31.2	0	3	248	0.00	29.762 
08:15	36.5	36.5	36.5	80	30.9	0	3	112	0.00	29.764 
08:20	36.5	36.5	36.5	80	30.9	1	2	112	0.00	29.764 
08:25	36.6	36.6	36.6	80	31.0	1	2	112	0.00	29.764 
08:30	36.6	36.6	36.6	80	31.0	0	1	112	0.00	29.769 
08:35	36.6	36.6	36.6	80	31.0	0	1	112	0.00	29.769 
08:40	36.6	36.6	36.6	80	31.0	0	2	112	0.00	29.769 
08:45	36.6	36.6	36.6	80	31.0	0	2	90	0.00	29.770 
08:50	36.8	36.8	36.8	81	31.5	0	1	338	0.00	29.770 
08:55	36.8	36.8	36.8	81	31.5	1	2	45	0.00	29.770 
09:00	36.9	36.9	36.9	81	31.6	1	3	45	0.00	29.775 
09:05	36.9	36.9	36.9	81	31.6	0	2	90	0.00	29.775 
09:10	36.9	36.9	36.9	81	31.6	1	3	90	0.00	29.775 
09:15	37.0	37.0	37.0	80	31.4	0	2	90	0.00	29.771 
09:20	37.0	37.0	37.0	80	31.4	1	3	90	0.00	29.771 
09:25	37.2	37.2	37.2	81	31.9	1	3	90	0.00	29.771 
09:30	37.2	37.2	37.2	81	31.9	1	3	112	0.00	29.766 
09:35	37.3	37.3	37.3	81	32.0	1	3	112	0.00	29.766 
09:40	37.3	37.3	37.3	81	32.0	1	4	112	0.00	29.766 
09:45	37.5	37.5	37.5	80	31.9	1	3	112	0.00	29.764 
09:50	37.5	37.5	37.5	79	31.6	1	5	135	0.00	29.764 
09:55	37.6	37.6	37.6	80	32.0	1	2	112	0.00	29.764 
10:00	37.8	37.8	37.8	80	32.2	1	3	68	0.00	29.765 
10:05	37.9	37.9	37.9	81	32.6	1	4	90	0.00	29.765 
10:10	38.0	38.0	38.0	80	32.4	1	2	112	0.00	29.765 
10:15	38.3	38.3	38.3	80	32.7	2	5	112	0.00	29.759 
10:20	38.5	38.5	38.5	80	32.9	2	5	90	0.00	29.759 
10:25	38.6	38.6	38.6	79	32.7	1	4	90	0.00	29.759 
10:30	39.1	39.1	39.1	80	33.5	1	3	112	0.00	29.750 
10:35	39.5	39.5	39.5	79	33.5	2	4	112	0.00	29.750 
10:40	39.3	39.3	39.3	78	33.0	2	4	112	0.00	29.750 
10:45	39.3	39.3	39.3	79	33.3	3	6	90	0.00	29.736 
10:50	39.5	39.5	39.5	78	33.2	3	7	112	0.00	29.736 
10:55	39.6	39.6	39.6	79	33.6	2	6	112	0.00	29.736 
11:00	39.8	39.8	39.8	79	33.8	3	6	112	0.00	29.731 
11:05	39.9	39.9	39.9	79	33.9	2	5	112	0.00	29.731 
11:10	39.9	39.9	39.9	77	33.3	3	7	90	0.00	29.731 
11:15	39.9	39.9	39.9	79	33.9	3	6	112	0.00	29.730 
11:20	40.1	40.1	40.1	78	33.8	3	5	112	0.00	29.730 
11:25	40.3	40.3	40.3	77	33.7	2	5	112	0.00	29.730 
11:30	40.8	40.8	40.8	77	34.2	3	7	90	0.00	29.728 
11:35	40.6	40.6	40.6	77	34.0	3	7	112	0.00	29.728 
11:40	41.1	41.1	41.1	77	34.4	3	7	112	0.00	29.728 
11:45	41.2	41.2	41.2	76	34.2	3	6	90	0.00	29.717 
11:50	41.2	41.2	41.2	77	34.5	2	6	90	0.00	29.717 
11:55	41.5	41.5	41.5	76	34.5	2	4	90	0.00	29.717 
12:00	41.8	41.8	41.8	77	35.1	2	7	112	0.00	29.714 
12:05	41.9	41.9	41.9	75	34.6	2	6	90	0.00	29.714 
12:10	41.6	41.6	41.6	77	34.9	3	6	112	0.00	29.714 
12:15	41.8	41.8	41.8	77	35.1	1	3	112	0.00	29.711 
12:20	41.8	41.8	41.8	76	34.8	2	5	90	0.00	29.711 
12:25	41.5	41.5	41.5	78	35.2	2	4	112	0.00	29.711 
12:30	41.2	41.2	41.2	77	34.5	3	5	112	0.00	29.700 
12:35	40.8	40.8	40.8	77	34.2	2	5	112	0.00	29.700 
12:40	40.5	40.5	40.5	79	34.5	2	4	90	0.00	29.700 
12:45	40.5	40.5	40.5	79	34.5	1	3	90	0.00	29.691 
12:50	40.9	40.9	40.9	78	34.6	1	3	112	0.00	29.691 
12:55	41.1	41.1	41.1	79	35.1	1	3	112	0.00	29.691 
13:00	40.9	40.9	40.9	79	34.9	2	5	90	0.00	29.679 
13:05	40.9	40.9	40.9	79	34.9	2	4	90	0.00	29.679 
13:10	41.2	41.2	41.2	78	34.9	1	2	90	0.00	29.679 
13:15	41.5	41.5	41.5	77	34.8	1	4	135	0.00	29.672 
13:20	41.2	41.2	41.2	78	34.9	3	4	90	0.00	29.672 
13:25	41.3	41.3	41.3	78	35.0	2	4	90	0.00	29.672 
13:30	41.8	41.8	41.8	78	35.5	2	3	90	0.00	29.663 
13:35	41.9	41.9	41.9	79	35.9	3	6	112	0.00	29.663 
13:40	41.8	41.8	41.8	77	35.1	2	5	112	0.00	29.663 
13:45	41.8	41.8	41.8	77	35.1	2	4	112	0.00	29.657 
13:50	42.1	42.1	42.1	77	35.4	1	4	112	0.00	29.657 
13:55	42.3	42.3	42.3	76	35.3	2	4	90	0.00	29.657 
14:00	42.5	42.5	42.5	77	35.8	2	4	112	0.00	29.657 
14:05	42.5	42.5	42.5	76	35.5	2	5	90	0.00	29.657 
14:10	42.6	42.6	42.6	77	35.9	1	4	112	0.00	29.657 
14:15	42.8	42.8	42.8	77	36.1	3	7	112	0.00	29.652 
14:20	42.8	42.8	42.8	77	36.1	1	3	90	0.00	29.652 
14:25	43.2	43.2	43.2	77	36.5	1	3	90	0.00	29.652 
14:30	43.3	43.3	43.3	77	36.6	2	4	112	0.00	29.652 
14:35	43.5	43.5	43.5	78	37.1	1	3	112	0.00	29.652 
14:40	43.5	43.5	43.5	77	36.8	2	4	112	0.00	29.652 
14:45	43.3	43.3	43.3	78	36.9	1	4	135	0.00	29.651 
14:50	43.2	43.2	43.2	79	37.1	2	5	112	0.00	29.651 
14:55	43.1	43.1	43.1	78	36.7	2	4	90	0.00	29.651 
15:00	43.1	43.1	43.1	79	37.0	1	4	90	0.00	29.651 
15:05	42.9	42.9	42.9	79	36.8	2	4	112	0.00	29.651 
15:10	42.8	42.8	42.8	79	36.7	1	7	90	0.00	29.651 
15:15	42.5	42.5	42.5	80	36.8	2	4	112	0.00	29.650 
15:20	42.3	42.3	42.3	81	36.9	1	3	112	0.00	29.650 
15:25	42.3	42.3	42.3	81	36.9	2	5	112	0.00	29.650 
15:30	42.3	42.3	42.3	81	36.9	1	3	112	0.00	29.646 
15:35	42.3	42.3	42.3	81	36.9	2	4	112	0.00	29.646 
15:40	42.2	42.2	42.2	82	37.1	2	4	135	0.00	29.646 
15:45	42.1	42.1	42.1	83	37.3	2	5	112	0.00	29.644 
15:50	42.1	42.1	42.1	82	37.0	2	6	112	0.00	29.644 
15:55	41.9	41.9	41.9	82	36.8	2	6	112	0.00	29.644 
16:00	41.8	41.8	41.8	83	37.0	2	5	112	0.00	29.645 
16:05	41.8	41.8	41.8	83	37.0	2	5	112	0.00	29.645 
16:10	41.8	41.8	41.8	83	37.0	2	5	112	0.00	29.645 
16:15	41.6	41.6	41.6	84	37.1	3	7	112	0.00	29.636 
16:20	41.5	41.5	41.5	86	37.6	2	5	112	0.00	29.636 
16:25	41.3	41.3	41.3	87	37.7	3	6	112	0.00	29.636 
16:30	41.2	41.2	41.2	88	37.9	3	7	90	0.00	29.625 
16:35	41.1	41.1	41.1	89	38.1	3	7	90	0.00	29.625 
16:40	40.9	40.9	40.9	89	37.9	3	6	112	0.01	29.625 
16:45	40.8	40.8	40.8	90	38.1	3	7	90	0.00	29.619 
16:50	40.6	38.0	40.6	90	37.9	4	7	90	0.00	29.619 
16:55	40.5	37.9	40.5	91	38.1	4	6	90	0.00	29.619 
17:00	40.5	40.5	40.5	91	38.1	3	6	90	0.01	29.609 
17:05	40.5	40.5	40.5	92	38.4	3	5	112	0.00	29.609 
17:10	40.5	40.5	40.5	92	38.4	3	5	112	0.01	29.609 
17:15	40.5	40.5	40.5	92	38.4	2	4	90	0.00	29.610 
17:20	40.5	40.5	40.5	93	38.6	2	6	112	0.00	29.610 
17:25	40.6	40.6	40.6	93	38.7	2	4	90	0.00	29.610 
17:30	40.6	40.6	40.6	93	38.7	3	9	112	0.01	29.610 
17:35	40.5	40.5	40.5	93	38.6	3	6	112	0.00	29.610 
17:40	40.6	40.6	40.6	93	38.7	3	5	112	0.01	29.610 
17:45	40.5	40.5	40.5	93	38.6	2	5	112	0.00	29.609 
17:50	40.6	40.6	40.6	93	38.7	2	7	112	0.00	29.609 
17:55	40.6	40.6	40.6	93	38.7	3	6	112	0.01	29.609 
18:00	40.5	40.5	40.5	93	38.6	3	7	112	0.00	29.609 
18:05	40.5	40.5	40.5	93	38.6	2	4	90	0.01	29.609 
18:10	40.5	40.5	40.5	93	38.6	2	4	112	0.00	29.609 
18:15	40.5	40.5	40.5	93	38.6	2	4	112	0.00	29.608 
18:20	40.3	40.3	40.3	93	38.4	3	6	90	0.01	29.608 
18:25	40.3	40.3	40.3	93	38.4	2	5	90	0.00	29.608 
18:30	40.3	40.3	40.3	93	38.4	2	5	112	0.01	29.607 
18:35	40.3	40.3	40.3	93	38.4	2	4	112	0.00	29.607 
18:40	40.3	40.3	40.3	94	38.7	2	4	112	0.00	29.607 
18:45	40.3	40.3	40.3	94	38.7	2	4	90	0.00	29.606 
18:50	40.3	40.3	40.3	94	38.7	2	4	90	0.01	29.606 
18:55	40.2	40.2	40.2	94	38.6	2	4	90	0.00	29.606 
19:00	40.2	40.2	40.2	94	38.6	2	4	112	0.00	29.601 
19:05	40.2	40.2	40.2	94	38.6	2	4	112	0.00	29.601 
19:10	40.3	40.3	40.3	94	38.7	1	4	90	0.00	29.601 
19:15	40.3	40.3	40.3	94	38.7	1	4	112	0.01	29.609 
19:20	40.3	40.3	40.3	94	38.7	1	4	112	0.00	29.609 
19:25	40.3	40.3	40.3	94	38.7	2	3	135	0.00	29.609 
19:30	40.3	40.3	40.3	94	38.7	1	3	90	0.00	29.606 
19:35	40.3	40.3	40.3	94	38.7	1	3	90	0.00	29.606 
19:40	40.3	40.3	40.3	94	38.7	2	5	112	0.00	29.606 
19:45	40.3	40.3	40.3	94	38.7	2	4	90	0.01	29.605 
19:50	40.3	40.3	40.3	94	38.7	2	3	90	0.00	29.605 
19:55	40.3	40.3	40.3	94	38.7	1	3	90	0.00	29.605 
20:00	40.3	40.3	40.3	94	38.7	2	4	90	0.00	29.596 
20:05	40.3	40.3	40.3	94	38.7	2	3	112	0.00	29.596 
20:10	40.3	40.3	40.3	94	38.7	1	5	90	0.00	29.596 
20:15	40.3	40.3	40.3	94	38.7	1	2	90	0.00	29.593 
20:20	40.3	40.3	40.3	94	38.7	1	4	112	0.00	29.593 
20:25	40.3	40.3	40.3	94	38.7	2	3	112	0.00	29.593 
20:30	40.3	40.3	40.3	94	38.7	2	6	112	0.01	29.588 
20:35	40.2	40.2	40.2	94	38.6	1	4	112	0.00	29.588 
20:40	40.2	40.2	40.2	94	38.6	2	3	90	0.00	29.588 
20:45	40.2	40.2	40.2	94	38.6	1	3	112	0.00	29.580 
20:50	40.2	40.2	40.2	94	38.6	1	4	90	0.00	29.580 
20:55	40.2	40.2	40.2	94	38.6	1	4	112	0.00	29.580 
21:00	40.2	40.2	40.2	94	38.6	1	3	112	0.00	29.578 
21:05	40.2	40.2	40.2	94	38.6	1	4	112	0.00	29.578 
21:10	40.2	40.2	40.2	94	38.6	2	5	112	0.00	29.578 
21:15	40.2	40.2	40.2	94	38.6	1	3	112	0.00	29.571 
21:20	40.2	40.2	40.2	94	38.6	2	4	112	0.01	29.571 
21:25	40.2	40.2	40.2	94	38.6	1	5	112	0.00	29.571 
21:30	40.2	40.2	40.2	94	38.6	2	4	112	0.00	29.560 
21:35	40.2	40.2	40.2	94	38.6	2	4	112	0.00	29.560 
21:40	40.2	40.2	40.2	94	38.6	2	4	112	0.00	29.560 
21:45	40.1	40.1	40.1	94	38.5	1	3	90	0.00	29.559 
21:50	40.1	40.1	40.1	94	38.5	2	6	90	0.00	29.559 
21:55	40.1	40.1	40.1	94	38.5	2	5	90	0.00	29.559 
22:00	40.1	40.1	40.1	94	38.5	1	3	112	0.00	29.558 
22:05	40.1	40.1	40.1	94	38.5	1	4	90	0.00	29.558 
22:10	40.1	40.1	40.1	94	38.5	2	4	90	0.00	29.558 
22:15	39.9	39.9	39.9	94	38.3	1	3	112	0.01	29.546 
22:20	39.9	39.9	39.9	94	38.3	1	2	112	0.00	29.546 
22:25	39.9	39.9	39.9	94	38.3	1	4	112	0.00	29.546 
22:30	39.9	39.9	39.9	94	38.3	1	3	112	0.00	29.542 
22:35	39.9	39.9	39.9	94	38.3	1	4	90	0.00	29.542 
22:40	39.9	39.9	39.9	94	38.3	1	3	90	0.00	29.542 
22:45	39.9	39.9	39.9	94	38.3	1	2	90	0.01	29.541 
22:50	39.9	39.9	39.9	94	38.3	0	1	90	0.00	29.541 
22:55	39.9	39.9	39.9	94	38.3	0	1	90	0.00	29.541 
23:00	39.9	39.9	39.9	94	38.3	0	1	90	0.01	29.536 
23:05	39.9	39.9	39.9	94	38.3	0	2	112	0.00	29.536 
23:10	39.9	39.9	39.9	94	38.3	0	2	90	0.00	29.536 
23:15	39.9	39.9	39.9	94	38.3	0	2	90	0.00	29.535 
23:20	40.1	40.1	40.1	94	38.5	1	2	90	0.00	29.535 
23:25	40.1	40.1	40.1	94	38.5	0	1	90	0.01	29.535 
23:30	40.1	40.1	40.1	94	38.5	0	2	90	0.00	29.529 
23:35	40.1	40.1	40.1	94	38.5	0	1	90	0.01	29.529 
23:40	40.1	40.1	40.1	94	38.5	0	1	90	0.00	29.529 
23:45	40.1	40.1	40.1	94	38.5	0	0	---	0.01	29.534 
23:50	40.1	40.1	40.1	94	38.5	0	1	90	0.00	29.534 
23:55	40.1	40.1	40.1	94	38.5	0	0	---	0.01	29.534 

CoCoRaHS
IN-AL-39
A2 Web Hosting
Creative Commons License
GoDaddy
Look for:

loaded 2017-12-13 15:31:54 • last modified 2010-11-18 10:43:29
Privacy PolicyDisclaimer
• wx.awcolley.com is powered by PmWiki v.2002016 •
• all content (unless otherwise noted) © 2017 A W Colley